Airport View

Enter AWOS ICAO identifier for current METAR.

ex. KFNL

KOGD 051253Z 16004KT 10SM CLR 21/02 A2999 RMK AO2 SLP088 T02060022

5 Aug 2020 14:07

Phone: 801-622-5600

Other Area AWOS: KHIF - KBMC - KSLC - KU42

TAF KOGD 051120Z 0512/0612 11006KT P6SM SKC FM051700 19007KT P6SM FEW150 FM052100 25007KT P6SM SKC FM060300 09005KT P6SM BKN120